createdAt,value
2022-12-19T00:00:50.578Z,22.23
2022-12-19T00:03:18.141Z,22.30
2022-12-19T00:05:46.996Z,22.13
2022-12-19T00:08:17.682Z,20.97
2022-12-19T00:10:45.468Z,22.63
2022-12-19T00:13:15.340Z,23.53
2022-12-19T00:15:43.164Z,22.97
2022-12-19T00:18:10.601Z,22.97
2022-12-19T00:20:38.003Z,22.70
2022-12-19T00:23:06.770Z,21.60
2022-12-19T00:25:34.231Z,22.53
2022-12-19T00:28:05.477Z,21.77
2022-12-19T00:30:33.167Z,22.43
2022-12-19T00:33:01.179Z,22.13
2022-12-19T00:35:28.612Z,23.13
2022-12-19T00:37:56.010Z,22.23
2022-12-19T00:40:24.764Z,22.20
2022-12-19T00:42:53.746Z,21.27
2022-12-19T00:45:21.359Z,22.07
2022-12-19T00:47:48.767Z,22.53
2022-12-19T00:50:16.254Z,22.77
2022-12-19T00:52:45.188Z,22.20
2022-12-19T00:55:19.497Z,21.67
2022-12-19T00:57:49.085Z,22.17
2022-12-19T01:00:17.231Z,21.40
2022-12-19T01:02:44.981Z,22.03
2022-12-19T01:05:12.595Z,21.03
2022-12-19T01:07:41.999Z,21.30
2022-12-19T01:10:09.910Z,21.70
2022-12-19T01:12:48.553Z,21.53
2022-12-19T01:15:20.376Z,23.90
2022-12-19T01:17:47.953Z,23.17
2022-12-19T01:20:16.031Z,24.20
2022-12-19T01:22:44.540Z,22.37
2022-12-19T01:25:13.651Z,22.00
2022-12-19T01:27:41.121Z,21.87
2022-12-19T01:30:09.184Z,20.43
2022-12-19T01:32:38.469Z,21.07
2022-12-19T01:35:06.400Z,20.83
2022-12-19T01:37:37.393Z,20.90
2022-12-19T01:40:05.128Z,20.87
2022-12-19T01:42:35.507Z,19.93
2022-12-19T01:45:20.210Z,20.87
2022-12-19T01:47:51.297Z,20.00
2022-12-19T01:50:24.389Z,19.20
2022-12-19T01:52:53.545Z,21.77
2022-12-19T01:55:21.160Z,22.10
2022-12-19T01:57:51.026Z,22.37
2022-12-19T02:00:18.515Z,22.87
2022-12-19T02:02:53.830Z,23.57
2022-12-19T02:05:21.916Z,23.30
2022-12-19T02:07:49.740Z,23.13
2022-12-19T02:10:17.233Z,23.73
2022-12-19T02:12:45.284Z,24.37
2022-12-19T02:15:15.304Z,23.57
2022-12-19T02:17:52.843Z,24.73
2022-12-19T02:20:38.207Z,27.23
2022-12-19T02:23:15.008Z,30.53
2022-12-19T02:25:57.019Z,31.90
2022-12-19T02:28:33.748Z,27.97
2022-12-19T02:31:16.567Z,29.03
2022-12-19T02:33:47.262Z,27.40
2022-12-19T02:36:17.415Z,27.47
2022-12-19T02:38:49.358Z,27.50
2022-12-19T02:41:21.412Z,26.70
2022-12-19T02:43:56.403Z,25.40
2022-12-19T02:46:29.483Z,24.87
2022-12-19T02:48:57.764Z,25.47
2022-12-19T02:51:25.263Z,26.77
2022-12-19T02:53:52.780Z,25.80
2022-12-19T02:56:25.073Z,26.80
2022-12-19T02:59:03.484Z,25.73
2022-12-19T03:01:39.804Z,26.97
2022-12-19T03:04:15.208Z,26.33
2022-12-19T03:06:46.185Z,25.40
2022-12-19T03:09:18.032Z,26.03
2022-12-19T03:11:47.919Z,26.00
2022-12-19T03:14:18.333Z,26.33
2022-12-19T03:16:47.259Z,25.67
2022-12-19T03:19:15.691Z,25.03
2022-12-19T03:21:44.835Z,25.63
2022-12-19T03:24:13.767Z,25.27
2022-12-19T03:26:45.968Z,26.90
2022-12-19T03:29:16.703Z,26.03
2022-12-19T03:31:45.563Z,26.30
2022-12-19T03:34:16.643Z,24.93
2022-12-19T03:36:46.385Z,25.87
2022-12-19T03:39:14.238Z,26.40
2022-12-19T03:42:01.681Z,27.20
2022-12-19T03:44:32.355Z,27.33
2022-12-19T03:47:04.999Z,26.60
2022-12-19T03:49:33.879Z,26.07
2022-12-19T03:52:03.575Z,26.63
2022-12-19T03:54:33.822Z,26.60
2022-12-19T03:57:03.100Z,26.20
2022-12-19T03:59:34.298Z,25.70
2022-12-19T04:02:02.743Z,25.43
2022-12-19T04:04:31.800Z,24.60
2022-12-19T04:07:02.263Z,25.70
2022-12-19T04:09:30.247Z,25.23
2022-12-19T04:12:01.639Z,26.33
2022-12-19T04:14:30.082Z,24.60
2022-12-19T04:17:01.581Z,24.23
2022-12-19T04:19:31.312Z,23.43
2022-12-19T04:22:03.042Z,24.23
2022-12-19T04:24:34.600Z,23.80
2022-12-19T04:27:02.660Z,23.60
2022-12-19T04:29:32.318Z,24.13
2022-12-19T04:32:00.106Z,22.87
2022-12-19T04:34:28.064Z,24.10
2022-12-19T04:36:58.560Z,21.80
2022-12-19T04:39:27.337Z,22.90
2022-12-19T04:41:54.776Z,21.47
2022-12-19T04:44:22.569Z,23.63
2022-12-19T04:46:50.107Z,23.67
2022-12-19T04:49:17.569Z,22.53
2022-12-19T04:51:44.998Z,23.10
2022-12-19T04:54:12.392Z,22.27
2022-12-19T04:56:41.159Z,22.10
2022-12-19T04:59:08.660Z,22.60
2022-12-19T05:01:36.207Z,24.67
2022-12-19T05:04:04.816Z,24.90
2022-12-19T05:06:32.612Z,27.40
2022-12-19T05:09:00.041Z,27.70
2022-12-19T05:11:28.076Z,28.03
2022-12-19T05:13:59.048Z,28.63
2022-12-19T05:16:26.522Z,26.77
2022-12-19T05:18:54.566Z,27.97
2022-12-19T05:21:22.226Z,27.60
2022-12-19T05:23:50.131Z,26.83
2022-12-19T05:26:17.863Z,22.93
2022-12-19T05:28:45.324Z,22.20
2022-12-19T05:31:15.870Z,23.20
2022-12-19T05:33:43.955Z,21.93
2022-12-19T05:36:12.219Z,21.80
2022-12-19T05:38:39.708Z,23.87
2022-12-19T05:41:07.939Z,25.63
2022-12-19T05:43:35.388Z,25.97
2022-12-19T05:46:02.987Z,23.93
2022-12-19T05:48:31.815Z,24.50
2022-12-19T05:50:59.421Z,21.63
2022-12-19T05:53:27.528Z,23.93
2022-12-19T05:56:03.210Z,23.27
2022-12-19T05:58:30.636Z,23.57
2022-12-19T06:01:02.454Z,25.77
2022-12-19T06:03:29.902Z,25.63
2022-12-19T06:05:58.698Z,25.23
2022-12-19T06:08:26.105Z,24.93
2022-12-19T06:10:53.532Z,25.17
2022-12-19T06:13:25.037Z,25.50
2022-12-19T06:15:57.651Z,27.10
2022-12-19T06:18:25.171Z,30.07
2022-12-19T06:20:56.716Z,29.00
2022-12-19T06:23:25.512Z,29.70
2022-12-19T06:25:52.942Z,28.03
2022-12-19T06:28:20.642Z,28.83
2022-12-19T06:30:48.131Z,28.47
2022-12-19T06:33:15.632Z,29.70
2022-12-19T06:35:43.108Z,28.30
2022-12-19T06:38:10.873Z,29.23
2022-12-19T06:41:00.263Z,28.43
2022-12-19T06:43:28.062Z,27.73
2022-12-19T06:45:57.959Z,28.83
2022-12-19T06:48:25.487Z,28.43
2022-12-19T06:50:52.927Z,28.47
2022-12-19T06:53:20.334Z,28.10
2022-12-19T06:55:49.944Z,27.83
2022-12-19T06:58:21.382Z,27.33
2022-12-19T07:00:51.945Z,28.57
2022-12-19T07:03:22.026Z,28.53
2022-12-19T07:05:49.566Z,28.00
2022-12-19T07:08:17.184Z,27.30
2022-12-19T07:10:44.748Z,28.80
2022-12-19T07:13:13.651Z,25.83
2022-12-19T07:15:41.471Z,27.63
2022-12-19T07:18:09.770Z,28.07
2022-12-19T07:20:41.793Z,27.00
2022-12-19T07:23:14.307Z,25.60
2022-12-19T07:25:41.829Z,25.40
2022-12-19T07:28:09.658Z,26.03
2022-12-19T07:30:38.501Z,24.30
2022-12-19T07:33:07.329Z,25.13
2022-12-19T07:35:37.340Z,24.17
2022-12-19T07:38:05.939Z,24.47
2022-12-19T07:40:33.712Z,23.43
2022-12-19T07:43:01.473Z,23.03
2022-12-19T07:45:28.957Z,25.40
2022-12-19T07:48:00.695Z,24.73
2022-12-19T07:50:28.155Z,26.07
2022-12-19T07:52:55.650Z,27.03
2022-12-19T07:55:23.066Z,24.63
2022-12-19T07:57:50.606Z,25.67
2022-12-19T08:00:18.385Z,25.37
2022-12-19T08:02:46.741Z,25.47
2022-12-19T08:05:15.696Z,25.37
2022-12-19T08:07:43.113Z,25.33
2022-12-19T08:10:12.388Z,26.43
2022-12-19T08:12:39.887Z,24.47
2022-12-19T08:15:07.909Z,26.60
2022-12-19T08:17:36.371Z,24.13
2022-12-19T08:20:03.906Z,26.00
2022-12-19T08:22:33.160Z,24.93
2022-12-19T08:25:00.594Z,24.77
2022-12-19T08:27:28.082Z,26.10
2022-12-19T08:29:55.542Z,25.83
2022-12-19T08:32:23.005Z,26.83
2022-12-19T08:34:50.763Z,25.90
2022-12-19T08:37:18.225Z,24.17
2022-12-19T08:39:47.028Z,26.43
2022-12-19T08:42:14.448Z,26.50
2022-12-19T08:44:41.877Z,26.57
2022-12-19T08:47:09.547Z,25.80
2022-12-19T08:49:36.975Z,27.97
2022-12-19T08:52:04.419Z,26.83
2022-12-19T08:54:31.852Z,27.47
2022-12-19T08:57:00.655Z,25.90
2022-12-19T08:59:31.294Z,25.53
2022-12-19T09:01:59.838Z,26.60
2022-12-19T09:06:02.216Z,26.40
2022-12-19T09:07:16.187Z,27.73
2022-12-19T09:09:43.863Z,26.10
2022-12-19T09:12:12.820Z,27.37
2022-12-19T09:14:40.329Z,29.37
2022-12-19T09:17:07.866Z,26.93
2022-12-19T09:19:35.428Z,28.37
2022-12-19T09:22:03.078Z,27.97
2022-12-19T09:24:30.543Z,27.63
2022-12-19T09:26:57.976Z,27.40
2022-12-19T09:29:32.187Z,26.73
2022-12-19T09:32:02.856Z,28.60
2022-12-19T09:34:36.970Z,27.27
2022-12-19T09:37:06.446Z,28.00
2022-12-19T09:39:34.957Z,27.70
2022-12-19T09:42:10.963Z,27.37
2022-12-19T09:44:47.664Z,27.87
2022-12-19T09:47:17.675Z,28.73
2022-12-19T09:49:46.466Z,28.60
2022-12-19T09:52:15.679Z,29.13
2022-12-19T09:54:44.407Z,28.87
2022-12-19T09:57:14.323Z,28.07
2022-12-19T09:59:49.555Z,28.83
2022-12-19T10:02:24.967Z,29.53
2022-12-19T10:04:56.401Z,29.80
2022-12-19T10:07:59.602Z,29.37
2022-12-19T10:12:38.767Z,28.17
2022-12-19T10:13:16.754Z,28.67
2022-12-19T10:16:00.333Z,29.77
2022-12-19T10:18:34.258Z,30.40
2022-12-19T10:21:05.041Z,28.87
2022-12-19T10:23:45.115Z,29.60
2022-12-19T10:26:17.252Z,29.43
2022-12-19T10:28:51.140Z,28.70
2022-12-19T10:31:22.985Z,29.47
2022-12-19T10:33:53.294Z,28.43
2022-12-19T10:36:20.869Z,30.50
2022-12-19T10:38:51.740Z,30.57
2022-12-19T10:41:21.740Z,31.87
2022-12-19T10:43:53.805Z,29.10
2022-12-19T10:46:26.133Z,30.77
2022-12-19T10:48:53.728Z,30.23
2022-12-19T10:51:23.874Z,30.67
2022-12-19T10:53:54.089Z,30.43
2022-12-19T10:56:23.023Z,30.50
2022-12-19T10:58:55.684Z,30.63
2022-12-19T11:01:27.389Z,29.87
2022-12-19T11:04:13.459Z,30.07
2022-12-19T11:06:44.269Z,30.07
2022-12-19T11:09:19.265Z,29.60
2022-12-19T11:14:30.843Z,29.10
2022-12-19T11:19:01.802Z,30.87
2022-12-19T11:28:38.892Z,29.27
2022-12-19T11:29:18.620Z,28.67
2022-12-19T11:29:37.054Z,28.67
2022-12-19T11:30:05.876Z,28.10
2022-12-19T11:30:08.862Z,29.00
2022-12-19T11:34:21.240Z,28.50
2022-12-19T11:36:50.587Z,29.33
2022-12-19T11:39:22.214Z,29.43
2022-12-19T11:41:55.711Z,29.27
2022-12-19T11:44:27.261Z,28.30
2022-12-19T11:46:57.856Z,28.30
2022-12-19T11:49:30.467Z,27.50
2022-12-19T11:52:01.959Z,27.73
2022-12-19T11:54:33.727Z,28.87
2022-12-19T11:57:02.061Z,29.27
2022-12-19T11:59:31.727Z,28.60
2022-12-19T12:02:07.232Z,28.97
2022-12-19T12:04:54.120Z,30.50
2022-12-19T12:07:38.218Z,30.97
2022-12-19T12:15:04.839Z,30.10
2022-12-19T12:22:32.960Z,33.83
2022-12-19T12:29:39.791Z,29.13
2022-12-19T12:31:11.703Z,29.03
2022-12-19T12:31:23.449Z,29.17
2022-12-19T12:31:38.593Z,29.77
2022-12-19T12:31:44.254Z,27.33
2022-12-19T12:31:59.002Z,28.23
2022-12-19T12:36:00.030Z,28.53
2022-12-19T12:39:01.872Z,29.50
2022-12-19T12:41:51.761Z,28.10
2022-12-19T12:44:19.218Z,28.17
2022-12-19T12:47:02.351Z,28.83
2022-12-19T12:49:35.333Z,29.83
2022-12-19T12:52:04.065Z,27.40
2022-12-19T12:54:35.246Z,28.27
2022-12-19T12:57:02.840Z,28.77
2022-12-19T12:59:30.937Z,28.80
2022-12-19T13:01:59.986Z,28.40
2022-12-19T13:04:30.859Z,29.67
2022-12-19T13:07:04.860Z,28.67
2022-12-19T13:09:35.405Z,30.50
2022-12-19T13:12:21.335Z,29.77
2022-12-19T13:14:49.811Z,29.20
2022-12-19T13:17:25.112Z,28.53
2022-12-19T13:19:56.598Z,27.27
2022-12-19T13:22:38.998Z,29.40
2022-12-19T13:25:21.373Z,28.53
2022-12-19T13:27:56.737Z,28.67
2022-12-19T13:30:24.438Z,29.30
2022-12-19T13:33:16.801Z,29.50
2022-12-19T13:36:48.519Z,30.17
2022-12-19T13:39:56.900Z,28.00
2022-12-19T13:41:46.891Z,29.83
2022-12-19T13:44:19.047Z,29.33
2022-12-19T13:46:47.392Z,30.83
2022-12-19T13:49:18.448Z,29.10
2022-12-19T13:51:49.411Z,29.27
2022-12-19T13:54:20.588Z,29.60
2022-12-19T13:56:48.157Z,30.63
2022-12-19T13:59:17.031Z,30.57
2022-12-19T14:01:46.977Z,30.23
2022-12-19T14:04:24.001Z,30.43
2022-12-19T14:06:56.814Z,30.43
2022-12-19T14:11:25.989Z,30.30
2022-12-19T14:13:48.241Z,30.50
2022-12-19T14:15:31.276Z,29.53
2022-12-19T14:18:43.033Z,30.97
2022-12-19T14:22:05.974Z,29.10
2022-12-19T14:23:42.903Z,30.37
2022-12-19T14:28:20.451Z,30.70
2022-12-19T14:29:02.532Z,30.13
2022-12-19T14:31:33.031Z,28.57
2022-12-19T14:36:50.411Z,29.60
2022-12-19T14:39:23.052Z,29.13
2022-12-19T14:42:19.468Z,28.33
2022-12-19T14:52:35.126Z,29.60
2022-12-19T14:54:03.492Z,28.03
2022-12-19T14:54:09.148Z,29.93
2022-12-19T14:54:38.018Z,27.93
2022-12-19T14:59:01.832Z,28.83
2022-12-19T15:01:30.591Z,29.30
2022-12-19T15:04:48.887Z,29.97
2022-12-19T15:07:09.670Z,28.10
2022-12-19T15:11:06.383Z,28.17
2022-12-19T15:14:49.482Z,29.87
2022-12-19T15:15:38.689Z,29.03
2022-12-19T15:18:17.901Z,31.40
2022-12-19T15:20:46.773Z,30.97
2022-12-19T15:23:21.498Z,31.40
2022-12-19T15:26:06.867Z,31.33
2022-12-19T15:28:38.043Z,31.43
2022-12-19T15:31:07.884Z,33.17
2022-12-19T15:33:35.539Z,31.73
2022-12-19T15:36:04.468Z,33.43
2022-12-19T15:38:31.889Z,34.03
2022-12-19T15:40:59.341Z,31.67
2022-12-19T15:44:01.729Z,33.07
2022-12-19T15:46:14.418Z,32.27
2022-12-19T15:48:45.105Z,30.90
2022-12-19T15:51:14.479Z,29.97
2022-12-19T15:53:42.223Z,31.20
2022-12-19T15:56:15.743Z,29.43
2022-12-19T15:58:43.234Z,29.20
2022-12-19T16:01:12.470Z,30.20
2022-12-19T16:03:40.270Z,29.20
2022-12-19T16:06:11.449Z,29.00
2022-12-19T16:08:40.366Z,28.60
2022-12-19T16:11:15.293Z,27.53
2022-12-19T16:13:44.365Z,28.23
2022-12-19T16:16:15.821Z,28.17
2022-12-19T16:18:44.473Z,27.93
2022-12-19T16:21:18.619Z,27.87
2022-12-19T16:23:47.796Z,28.03
2022-12-19T16:26:26.971Z,28.50
2022-12-19T16:28:54.496Z,30.30
2022-12-19T16:31:24.517Z,30.93
2022-12-19T16:33:52.028Z,30.77
2022-12-19T16:36:19.485Z,28.53
2022-12-19T16:38:48.352Z,30.33
2022-12-19T16:41:16.847Z,28.60
2022-12-19T16:43:44.978Z,28.83
2022-12-19T16:46:16.280Z,30.10
2022-12-19T16:48:43.767Z,31.43
2022-12-19T16:51:17.365Z,29.33
2022-12-19T16:53:44.884Z,28.57
2022-12-19T16:56:19.179Z,31.67
2022-12-19T16:58:46.643Z,30.60
2022-12-19T17:01:14.273Z,31.43
2022-12-19T17:03:44.465Z,30.90
2022-12-19T17:06:12.377Z,27.43
2022-12-19T17:08:39.886Z,29.27
2022-12-19T17:11:08.398Z,29.07
2022-12-19T17:13:37.213Z,28.87
2022-12-19T17:16:05.169Z,28.37
2022-12-19T17:18:34.004Z,29.80
2022-12-19T17:21:01.674Z,28.73
2022-12-19T17:23:30.991Z,28.70
2022-12-19T17:26:00.143Z,27.80
2022-12-19T17:28:28.046Z,28.67
2022-12-19T17:30:58.258Z,29.83
2022-12-19T17:33:27.535Z,28.43
2022-12-19T17:35:55.025Z,29.27
2022-12-19T17:38:22.480Z,28.73
2022-12-19T17:40:49.936Z,28.33
2022-12-19T17:43:17.878Z,28.20
2022-12-19T17:45:45.559Z,30.93
2022-12-19T17:48:18.031Z,29.67
2022-12-19T17:50:45.471Z,29.63
2022-12-19T17:53:14.125Z,32.63
2022-12-19T17:55:41.878Z,31.47
2022-12-19T17:58:09.699Z,31.50
2022-12-19T18:00:37.571Z,28.97
2022-12-19T18:03:07.227Z,29.97
2022-12-19T18:05:36.948Z,29.63
2022-12-19T18:08:04.983Z,28.17
2022-12-19T18:10:32.862Z,28.53
2022-12-19T18:13:00.330Z,28.33
2022-12-19T18:15:27.946Z,28.17
2022-12-19T18:17:56.017Z,27.53
2022-12-19T18:20:31.224Z,29.57
2022-12-19T18:23:01.821Z,27.73
2022-12-19T18:25:30.870Z,28.20
2022-12-19T18:27:58.690Z,29.63
2022-12-19T18:30:26.269Z,26.20
2022-12-19T18:32:56.361Z,27.53
2022-12-19T18:35:25.472Z,27.40
2022-12-19T18:37:53.288Z,26.70
2022-12-19T18:40:30.982Z,27.33
2022-12-19T18:42:58.966Z,28.03
2022-12-19T18:45:28.999Z,27.60
2022-12-19T18:47:57.986Z,27.77
2022-12-19T18:50:26.469Z,28.13
2022-12-19T18:52:55.166Z,27.77
2022-12-19T18:55:25.690Z,28.33
2022-12-19T18:57:53.223Z,27.30
2022-12-19T19:00:22.225Z,27.50
2022-12-19T19:02:51.067Z,27.47
2022-12-19T19:05:20.510Z,28.13
2022-12-19T19:07:48.297Z,26.47
2022-12-19T19:10:17.348Z,27.10
2022-12-19T19:13:05.189Z,28.00
2022-12-19T19:15:37.430Z,29.33
2022-12-19T19:18:06.280Z,29.97
2022-12-19T19:20:36.158Z,29.07
2022-12-19T19:23:04.268Z,31.50
2022-12-19T19:25:31.845Z,29.73
2022-12-19T19:28:00.632Z,32.27
2022-12-19T19:30:28.244Z,33.20
2022-12-19T19:32:58.552Z,33.00
2022-12-19T19:35:27.224Z,31.23
2022-12-19T19:37:57.571Z,30.37
2022-12-19T19:40:25.063Z,31.10
2022-12-19T19:42:52.499Z,33.53
2022-12-19T19:45:21.428Z,33.30
2022-12-19T19:47:48.852Z,31.57
2022-12-19T19:50:16.381Z,32.37
2022-12-19T19:52:43.961Z,32.30
2022-12-19T19:55:11.429Z,33.50
2022-12-19T19:57:39.080Z,35.37
2022-12-19T20:00:08.486Z,32.83
2022-12-19T20:02:43.215Z,33.50
2022-12-19T20:05:10.916Z,34.60
2022-12-19T20:07:38.652Z,33.23
2022-12-19T20:10:08.262Z,34.77
2022-12-19T20:12:35.723Z,34.80
2022-12-19T20:15:03.305Z,36.40
2022-12-19T20:17:30.744Z,37.10
2022-12-19T20:19:59.545Z,36.00
2022-12-19T20:22:27.339Z,34.57
2022-12-19T20:24:54.953Z,35.27
2022-12-19T20:27:22.433Z,33.87
2022-12-19T20:29:49.910Z,36.73
2022-12-19T20:32:17.561Z,33.47
2022-12-19T20:34:45.060Z,38.07
2022-12-19T20:37:15.026Z,34.77
2022-12-19T20:39:42.491Z,32.27
2022-12-19T20:42:09.990Z,32.40
2022-12-19T20:44:37.682Z,32.67
2022-12-19T20:47:05.228Z,33.07
2022-12-19T20:49:32.828Z,34.17
2022-12-19T20:52:00.276Z,31.93
2022-12-19T20:54:29.437Z,34.17
2022-12-19T20:56:56.906Z,32.03
2022-12-19T20:59:24.363Z,30.93
2022-12-19T21:01:51.980Z,32.70
2022-12-19T21:04:19.682Z,31.73
2022-12-19T21:06:47.370Z,28.77
2022-12-19T21:09:14.938Z,32.00
2022-12-19T21:11:43.721Z,31.77
2022-12-19T21:14:11.876Z,32.23
2022-12-19T21:16:39.395Z,30.90
2022-12-19T21:19:06.869Z,32.20
2022-12-19T21:21:34.329Z,30.90
2022-12-19T21:24:02.137Z,31.20
2022-12-19T21:26:30.363Z,29.80
2022-12-19T21:28:59.444Z,29.70
2022-12-19T21:31:28.337Z,31.43
2022-12-19T21:33:56.601Z,31.60
2022-12-19T21:36:24.592Z,32.43
2022-12-19T21:38:53.246Z,31.23
2022-12-19T21:41:21.188Z,31.30
2022-12-19T21:43:49.227Z,31.97
2022-12-19T21:46:18.510Z,31.87
2022-12-19T21:48:47.284Z,31.57
2022-12-19T21:51:15.232Z,31.30
2022-12-19T21:53:45.969Z,29.17
2022-12-19T21:56:19.330Z,30.43
2022-12-19T21:58:46.959Z,29.63
2022-12-19T22:01:15.609Z,28.77
2022-12-19T22:03:44.586Z,29.87
2022-12-19T22:06:14.828Z,27.57
2022-12-19T22:08:42.266Z,29.57
2022-12-19T22:11:13.116Z,28.87
2022-12-19T22:13:40.571Z,29.57
2022-12-19T22:16:08.356Z,27.73
2022-12-19T22:18:36.020Z,29.97
2022-12-19T22:21:05.399Z,30.07
2022-12-19T22:23:32.832Z,28.00
2022-12-19T22:26:00.930Z,27.53
2022-12-19T22:28:29.911Z,27.83
2022-12-19T22:30:57.372Z,28.70
2022-12-19T22:33:24.826Z,28.03
2022-12-19T22:35:52.335Z,27.63
2022-12-19T22:38:21.345Z,27.30
2022-12-19T22:40:48.953Z,28.20
2022-12-19T22:43:16.387Z,26.37
2022-12-19T22:45:43.923Z,26.40
2022-12-19T22:48:11.424Z,27.10
2022-12-19T22:50:44.718Z,27.70
2022-12-19T22:53:13.039Z,27.10
2022-12-19T22:55:42.023Z,27.60
2022-12-19T22:58:09.561Z,26.10
2022-12-19T23:00:37.116Z,24.63
2022-12-19T23:03:04.828Z,25.00
2022-12-19T23:05:32.424Z,26.43
2022-12-19T23:07:59.844Z,27.20
2022-12-19T23:10:27.281Z,29.00
2022-12-19T23:12:56.205Z,31.50
2022-12-19T23:15:23.630Z,31.87
2022-12-19T23:17:51.101Z,32.10
2022-12-19T23:20:18.636Z,31.67
2022-12-19T23:22:46.082Z,31.60
2022-12-19T23:25:13.690Z,31.97
2022-12-19T23:27:41.682Z,30.17
2022-12-19T23:30:11.305Z,30.80
2022-12-19T23:32:38.807Z,28.80
2022-12-19T23:35:06.665Z,28.53
2022-12-19T23:37:34.140Z,27.60
2022-12-19T23:40:01.707Z,25.73
2022-12-19T23:42:29.227Z,27.70
2022-12-19T23:44:56.697Z,26.57
2022-12-19T23:47:25.523Z,27.27
2022-12-19T23:49:52.940Z,29.93
2022-12-19T23:52:20.387Z,29.00
2022-12-19T23:54:47.943Z,32.17
2022-12-19T23:57:15.717Z,28.47
2022-12-19T23:59:43.204Z,31.63
